createdAt,value
2022-12-19T00:02:04.541Z,71.83
2022-12-19T00:04:33.998Z,72.21
2022-12-19T00:07:03.419Z,72.51
2022-12-19T00:09:32.753Z,71.88
2022-12-19T00:12:04.380Z,72.50
2022-12-19T00:14:35.080Z,72.05
2022-12-19T00:17:04.597Z,71.90
2022-12-19T00:19:34.521Z,71.92
2022-12-19T00:22:08.278Z,71.85
2022-12-19T00:24:40.269Z,71.46
2022-12-19T00:27:09.670Z,71.91
2022-12-19T00:29:40.351Z,71.61
2022-12-19T00:32:09.896Z,71.74
2022-12-19T00:34:44.548Z,71.34
2022-12-19T00:37:14.103Z,71.68
2022-12-19T00:39:43.230Z,71.48
2022-12-19T00:42:12.831Z,71.35
2022-12-19T00:44:43.332Z,71.52
2022-12-19T00:47:12.796Z,71.21
2022-12-19T00:49:41.931Z,71.06
2022-12-19T00:52:11.720Z,70.72
2022-12-19T00:54:40.940Z,71.33
2022-12-19T00:57:10.761Z,72.05
2022-12-19T00:59:39.909Z,71.38
2022-12-19T01:02:10.981Z,71.69
2022-12-19T01:04:41.997Z,71.84
2022-12-19T01:07:15.526Z,71.55
2022-12-19T01:09:45.007Z,71.63
2022-12-19T01:12:32.565Z,71.37
2022-12-19T01:15:04.375Z,70.98
2022-12-19T01:17:37.745Z,71.18
2022-12-19T01:20:15.263Z,71.24
2022-12-19T01:22:45.205Z,71.08
2022-12-19T01:25:16.260Z,70.93
2022-12-19T01:27:45.895Z,71.23
2022-12-19T01:30:15.382Z,71.71
2022-12-19T01:32:46.351Z,71.25
2022-12-19T01:35:21.487Z,71.10
2022-12-19T01:37:52.205Z,71.80
2022-12-19T01:40:37.733Z,71.91
2022-12-19T01:43:08.031Z,71.58
2022-12-19T01:45:43.605Z,71.32
2022-12-19T01:48:22.496Z,71.30
2022-12-19T01:51:02.700Z,71.65
2022-12-19T01:53:43.745Z,71.28
2022-12-19T01:56:20.793Z,71.24
2022-12-19T01:58:57.960Z,71.27
2022-12-19T02:01:50.919Z,72.04
2022-12-19T02:04:32.478Z,72.34
2022-12-19T02:07:09.346Z,71.89
2022-12-19T02:09:47.695Z,71.52
2022-12-19T02:12:24.492Z,71.74
2022-12-19T02:14:57.417Z,71.33
2022-12-19T02:17:40.134Z,71.46
2022-12-19T02:20:39.024Z,71.79
2022-12-19T02:23:28.178Z,71.90
2022-12-19T02:26:18.321Z,72.12
2022-12-19T02:29:07.152Z,71.61
2022-12-19T02:31:48.728Z,71.36
2022-12-19T02:34:23.970Z,71.60
2022-12-19T02:37:08.938Z,71.64
2022-12-19T02:39:46.753Z,71.84
2022-12-19T02:42:22.530Z,71.63
2022-12-19T02:44:54.961Z,71.48
2022-12-19T02:47:26.645Z,71.13
2022-12-19T02:49:57.608Z,71.93
2022-12-19T02:52:49.099Z,71.70
2022-12-19T02:55:23.226Z,71.28
2022-12-19T02:58:39.955Z,71.85
2022-12-19T03:01:19.445Z,71.44
2022-12-19T03:04:02.964Z,71.54
2022-12-19T03:06:38.146Z,71.16
2022-12-19T03:09:15.407Z,71.50
2022-12-19T03:11:47.937Z,71.44
2022-12-19T03:14:22.247Z,71.61
2022-12-19T03:16:56.218Z,71.30
2022-12-19T03:19:27.306Z,70.95
2022-12-19T03:21:56.710Z,71.06
2022-12-19T03:24:27.251Z,71.14
2022-12-19T03:27:00.873Z,70.33
2022-12-19T03:29:35.382Z,70.80
2022-12-19T03:36:30.152Z,70.67
2022-12-19T03:39:01.235Z,70.70
2022-12-19T03:41:49.173Z,70.78
2022-12-19T03:44:22.141Z,70.47
2022-12-19T03:46:59.560Z,70.59
2022-12-19T03:49:29.335Z,70.67
2022-12-19T03:52:04.521Z,70.45
2022-12-19T03:54:37.817Z,70.21
2022-12-19T03:57:13.988Z,70.29
2022-12-19T03:59:50.393Z,70.35
2022-12-19T04:02:22.257Z,70.20
2022-12-19T04:04:58.614Z,70.12
2022-12-19T04:07:29.971Z,70.00
2022-12-19T04:10:05.109Z,69.90
2022-12-19T04:12:37.840Z,69.97
2022-12-19T04:15:09.137Z,70.01
2022-12-19T04:17:43.617Z,69.88
2022-12-19T04:20:15.222Z,69.94
2022-12-19T04:22:52.827Z,69.77
2022-12-19T04:25:29.512Z,69.74
2022-12-19T04:28:02.713Z,70.18
2022-12-19T04:30:36.508Z,70.09
2022-12-19T04:33:06.441Z,70.61
2022-12-19T04:35:37.889Z,70.64
2022-12-19T04:38:08.668Z,70.44
2022-12-19T04:40:41.501Z,70.32
2022-12-19T04:43:11.334Z,70.44
2022-12-19T04:45:43.224Z,70.90
2022-12-19T04:48:12.622Z,70.54
2022-12-19T04:50:42.071Z,70.70
2022-12-19T04:53:13.027Z,71.30
2022-12-19T04:55:42.677Z,71.22
2022-12-19T04:58:16.313Z,71.14
2022-12-19T05:00:48.625Z,71.41
2022-12-19T05:03:17.880Z,71.67
2022-12-19T05:05:47.469Z,71.04
2022-12-19T05:08:18.031Z,71.29
2022-12-19T05:10:47.586Z,71.62
2022-12-19T05:13:16.720Z,71.66
2022-12-19T05:15:46.311Z,71.27
2022-12-19T05:18:16.548Z,71.80
2022-12-19T05:20:49.371Z,71.92
2022-12-19T05:23:20.101Z,72.22
2022-12-19T05:25:49.953Z,72.02
2022-12-19T05:28:19.513Z,72.14
2022-12-19T05:30:52.306Z,71.87
2022-12-19T05:33:21.904Z,72.32
2022-12-19T05:35:51.327Z,71.79
2022-12-19T05:38:21.982Z,72.33
2022-12-19T05:40:51.513Z,72.31
2022-12-19T05:43:20.674Z,72.05
2022-12-19T05:45:50.240Z,71.75
2022-12-19T05:48:19.376Z,72.03
2022-12-19T05:50:51.979Z,72.42
2022-12-19T05:53:25.985Z,72.10
2022-12-19T05:56:03.843Z,72.50
2022-12-19T05:58:33.602Z,72.46
2022-12-19T06:01:07.439Z,72.24
2022-12-19T06:03:36.889Z,72.27
2022-12-19T06:06:08.519Z,72.52
2022-12-19T06:08:39.544Z,72.31
2022-12-19T06:11:10.830Z,72.22
2022-12-19T06:13:40.943Z,72.29
2022-12-19T06:16:12.923Z,72.60
2022-12-19T06:18:45.130Z,72.23
2022-12-19T06:21:16.990Z,72.18
2022-12-19T06:23:48.464Z,72.12
2022-12-19T06:26:20.437Z,72.44
2022-12-19T06:28:50.900Z,72.62
2022-12-19T06:31:22.070Z,72.32
2022-12-19T06:33:51.650Z,71.90
2022-12-19T06:36:23.455Z,72.29
2022-12-19T06:38:55.235Z,72.12
2022-12-19T06:41:42.196Z,71.76
2022-12-19T06:44:15.174Z,71.77
2022-12-19T06:46:45.229Z,72.09
2022-12-19T06:49:14.334Z,72.26
2022-12-19T06:51:44.377Z,72.57
2022-12-19T06:54:15.957Z,72.21
2022-12-19T06:56:46.032Z,72.28
2022-12-19T06:59:17.596Z,72.63
2022-12-19T07:01:58.006Z,72.52
2022-12-19T07:04:31.997Z,72.46
2022-12-19T07:07:02.593Z,72.66
2022-12-19T07:09:34.802Z,71.97
2022-12-19T07:12:04.678Z,72.33
2022-12-19T07:14:33.829Z,72.42
2022-12-19T07:17:05.130Z,72.53
2022-12-19T07:19:35.321Z,72.65
2022-12-19T07:22:06.908Z,73.12
2022-12-19T07:24:38.367Z,72.60
2022-12-19T07:27:08.545Z,73.13
2022-12-19T07:29:37.723Z,73.04
2022-12-19T07:32:07.281Z,72.90
2022-12-19T07:34:36.525Z,72.97
2022-12-19T07:37:06.840Z,72.95
2022-12-19T07:39:37.593Z,73.51
2022-12-19T07:42:07.233Z,73.08
2022-12-19T07:44:41.194Z,73.51
2022-12-19T07:47:10.849Z,73.30
2022-12-19T07:49:40.068Z,72.95
2022-12-19T07:52:09.664Z,72.86
2022-12-19T07:54:41.025Z,72.93
2022-12-19T07:57:10.581Z,73.11
2022-12-19T07:59:39.731Z,73.43
2022-12-19T08:02:09.431Z,72.98
2022-12-19T08:04:38.874Z,72.83
2022-12-19T08:07:08.446Z,72.87
2022-12-19T08:09:39.341Z,73.06
2022-12-19T08:12:09.134Z,73.12
2022-12-19T08:14:38.536Z,73.45
2022-12-19T08:17:23.266Z,73.43
2022-12-19T08:19:53.428Z,73.10
2022-12-19T08:22:23.067Z,73.35
2022-12-19T08:24:55.926Z,73.09
2022-12-19T08:27:25.621Z,73.09
2022-12-19T08:29:55.226Z,73.44
2022-12-19T08:32:24.766Z,73.14
2022-12-19T08:34:54.785Z,73.28
2022-12-19T08:37:24.422Z,73.31
2022-12-19T08:39:55.263Z,73.58
2022-12-19T08:42:24.959Z,73.44
2022-12-19T08:44:54.310Z,73.34
2022-12-19T08:47:23.747Z,73.42
2022-12-19T08:49:53.014Z,73.03
2022-12-19T08:52:22.431Z,73.41
2022-12-19T08:54:51.796Z,73.03
2022-12-19T08:57:22.634Z,73.46
2022-12-19T08:59:52.150Z,73.35
2022-12-19T09:02:22.146Z,73.50
2022-12-19T09:05:57.825Z,73.05
2022-12-19T09:07:42.418Z,73.21
2022-12-19T09:10:11.997Z,73.15
2022-12-19T09:12:44.704Z,72.91
2022-12-19T09:15:14.297Z,73.18
2022-12-19T09:17:43.623Z,73.16
2022-12-19T09:20:22.808Z,73.04
2022-12-19T09:22:53.500Z,73.02
2022-12-19T09:25:23.129Z,72.96
2022-12-19T09:28:26.268Z,73.02
2022-12-19T09:30:45.077Z,72.93
2022-12-19T09:33:14.502Z,72.72
2022-12-19T09:35:52.454Z,72.83
2022-12-19T09:38:25.427Z,72.77
2022-12-19T09:41:07.811Z,72.98
2022-12-19T09:43:50.809Z,73.00
2022-12-19T09:46:23.083Z,72.97
2022-12-19T09:48:58.392Z,73.09
2022-12-19T09:51:36.741Z,72.83
2022-12-19T09:54:12.904Z,72.88
2022-12-19T09:56:46.498Z,72.92
2022-12-19T09:59:32.363Z,72.80
2022-12-19T10:02:33.267Z,72.84
2022-12-19T10:05:19.688Z,72.81
2022-12-19T10:08:08.475Z,72.79
2022-12-19T10:12:43.486Z,72.58
2022-12-19T10:13:57.252Z,72.63
2022-12-19T10:16:37.391Z,72.84
2022-12-19T10:19:10.570Z,72.78
2022-12-19T10:22:17.054Z,72.67
2022-12-19T10:25:08.921Z,72.81
2022-12-19T10:27:57.353Z,72.50
2022-12-19T10:30:32.306Z,72.58
2022-12-19T10:33:20.729Z,72.93
2022-12-19T10:36:02.222Z,72.82
2022-12-19T10:38:39.321Z,72.83
2022-12-19T10:41:19.469Z,72.73
2022-12-19T10:43:58.106Z,72.52
2022-12-19T10:46:39.183Z,72.66
2022-12-19T10:49:21.789Z,72.60
2022-12-19T10:52:02.546Z,72.73
2022-12-19T10:54:44.186Z,72.49
2022-12-19T10:57:24.524Z,72.50
2022-12-19T10:59:58.572Z,72.32
2022-12-19T11:02:44.897Z,72.33
2022-12-19T11:05:28.615Z,72.57
2022-12-19T11:08:18.675Z,72.80
2022-12-19T11:13:04.117Z,72.71
2022-12-19T11:17:24.254Z,72.61
2022-12-19T11:23:35.107Z,72.51
2022-12-19T11:29:27.068Z,72.86
2022-12-19T11:29:45.792Z,72.64
2022-12-19T11:30:37.766Z,72.39
2022-12-19T11:30:41.126Z,72.55
2022-12-19T11:34:15.023Z,72.52
2022-12-19T11:36:50.855Z,72.59
2022-12-19T11:39:27.368Z,72.70
2022-12-19T11:42:02.282Z,72.58
2022-12-19T11:44:40.250Z,72.55
2022-12-19T11:47:21.608Z,71.94
2022-12-19T11:49:59.091Z,72.41
2022-12-19T11:55:40.752Z,72.37
2022-12-19T11:58:12.430Z,72.32
2022-12-19T12:00:50.484Z,72.07
2022-12-19T12:03:58.316Z,72.21
2022-12-19T12:06:35.585Z,71.98
2022-12-19T12:14:20.108Z,72.26
2022-12-19T12:19:34.189Z,72.08
2022-12-19T12:29:15.676Z,72.39
2022-12-19T12:31:04.928Z,72.18
2022-12-19T12:31:10.130Z,72.20
2022-12-19T12:31:47.163Z,72.10
2022-12-19T12:31:57.404Z,72.15
2022-12-19T12:32:05.581Z,72.00
2022-12-19T12:35:46.219Z,71.81
2022-12-19T12:39:33.600Z,71.92
2022-12-19T12:42:17.519Z,72.25
2022-12-19T12:44:51.775Z,72.28
2022-12-19T12:47:24.622Z,72.01
2022-12-19T12:49:58.629Z,72.25
2022-12-19T12:52:35.460Z,72.18
2022-12-19T12:55:06.609Z,72.13
2022-12-19T12:57:39.358Z,71.83
2022-12-19T13:00:25.635Z,72.07
2022-12-19T13:03:05.860Z,72.03
2022-12-19T13:06:30.983Z,72.27
2022-12-19T13:09:25.954Z,72.38
2022-12-19T13:12:18.796Z,72.14
2022-12-19T13:14:50.597Z,72.13
2022-12-19T13:17:46.172Z,72.37
2022-12-19T13:20:44.462Z,72.17
2022-12-19T13:23:33.754Z,72.17
2022-12-19T13:26:02.800Z,72.26
2022-12-19T13:28:42.014Z,72.20
2022-12-19T13:31:36.794Z,72.12
2022-12-19T13:34:19.522Z,72.35
2022-12-19T13:39:49.477Z,72.11
2022-12-19T13:40:12.250Z,71.93
2022-12-19T13:43:12.474Z,72.19
2022-12-19T13:45:48.878Z,72.22
2022-12-19T13:48:27.446Z,72.03
2022-12-19T13:50:59.811Z,72.17
2022-12-19T13:53:31.419Z,71.84
2022-12-19T13:56:03.351Z,71.83
2022-12-19T13:58:36.059Z,71.60
2022-12-19T14:01:21.045Z,72.02
2022-12-19T14:03:54.303Z,71.74
2022-12-19T14:06:28.313Z,72.07
2022-12-19T14:11:25.901Z,71.95
2022-12-19T14:13:40.215Z,72.06
2022-12-19T14:15:13.138Z,72.05
2022-12-19T14:17:49.881Z,71.55
2022-12-19T14:22:02.715Z,71.95
2022-12-19T14:23:14.840Z,71.83
2022-12-19T14:28:17.072Z,71.86
2022-12-19T14:28:54.912Z,71.44
2022-12-19T14:31:24.893Z,71.79
2022-12-19T14:34:19.104Z,71.70
2022-12-19T14:36:51.261Z,71.69
2022-12-19T14:39:29.157Z,71.73
2022-12-19T14:42:31.769Z,71.77
2022-12-19T14:52:34.685Z,71.44
2022-12-19T14:53:34.037Z,71.71
2022-12-19T14:54:20.819Z,71.30
2022-12-19T14:56:02.117Z,71.49
2022-12-19T14:58:33.727Z,71.64
2022-12-19T15:01:10.982Z,71.49
2022-12-19T15:03:24.630Z,71.29
2022-12-19T15:07:05.297Z,70.93
2022-12-19T15:10:58.287Z,71.42
2022-12-19T15:14:48.854Z,71.26
2022-12-19T15:15:18.723Z,71.38
2022-12-19T15:17:50.697Z,71.63
2022-12-19T15:20:20.525Z,71.60
2022-12-19T15:22:51.911Z,71.47
2022-12-19T15:26:01.393Z,71.45
2022-12-19T15:28:16.926Z,71.30
2022-12-19T15:30:51.705Z,71.35
2022-12-19T15:33:21.762Z,71.46
2022-12-19T15:35:51.349Z,71.49
2022-12-19T15:38:20.846Z,71.35
2022-12-19T15:40:50.473Z,71.11
2022-12-19T15:44:01.831Z,71.67
2022-12-19T15:46:14.497Z,71.38
2022-12-19T15:48:50.437Z,71.59
2022-12-19T15:51:20.014Z,71.31
2022-12-19T15:53:49.144Z,71.40
2022-12-19T15:56:28.860Z,71.52
2022-12-19T15:59:02.921Z,71.56
2022-12-19T16:01:34.254Z,71.38
2022-12-19T16:04:05.001Z,71.35
2022-12-19T16:06:34.702Z,71.58
2022-12-19T16:09:04.085Z,71.62
2022-12-19T16:11:33.620Z,71.62
2022-12-19T16:14:04.154Z,71.61
2022-12-19T16:16:33.580Z,71.60
2022-12-19T16:19:02.823Z,71.21
2022-12-19T16:21:34.545Z,71.30
2022-12-19T16:24:04.941Z,71.54
2022-12-19T16:26:39.019Z,71.63
2022-12-19T16:29:18.311Z,71.52
2022-12-19T16:31:48.052Z,71.52
2022-12-19T16:34:19.400Z,71.58
2022-12-19T16:36:49.552Z,71.49
2022-12-19T16:39:19.448Z,71.26
2022-12-19T16:41:49.159Z,71.45
2022-12-19T16:44:21.824Z,71.74
2022-12-19T16:46:52.990Z,71.47
2022-12-19T16:49:23.894Z,71.69
2022-12-19T16:51:54.263Z,71.20
2022-12-19T16:54:23.369Z,71.73
2022-12-19T16:56:55.270Z,71.59
2022-12-19T16:59:32.005Z,71.50
2022-12-19T17:02:02.224Z,71.46
2022-12-19T17:04:31.327Z,71.33
2022-12-19T17:07:01.141Z,71.22
2022-12-19T17:09:30.540Z,71.60
2022-12-19T17:12:02.509Z,71.31
2022-12-19T17:14:33.973Z,71.75
2022-12-19T17:17:03.552Z,71.46
2022-12-19T17:19:38.097Z,71.42
2022-12-19T17:22:14.221Z,71.38
2022-12-19T17:24:44.913Z,71.17
2022-12-19T17:27:17.296Z,71.63
2022-12-19T17:29:47.953Z,71.55
2022-12-19T17:32:23.560Z,71.40
2022-12-19T17:34:54.097Z,71.38
2022-12-19T17:37:23.917Z,71.20
2022-12-19T17:39:53.231Z,71.59
2022-12-19T17:42:24.601Z,71.13
2022-12-19T17:44:55.686Z,71.11
2022-12-19T17:47:25.729Z,71.42
2022-12-19T17:49:54.917Z,71.13
2022-12-19T17:52:24.346Z,71.16
2022-12-19T17:54:53.471Z,71.05
2022-12-19T17:57:23.235Z,71.53
2022-12-19T17:59:52.370Z,71.34
2022-12-19T18:02:25.889Z,71.25
2022-12-19T18:04:58.526Z,71.22
2022-12-19T18:07:28.062Z,71.24
2022-12-19T18:09:57.291Z,71.28
2022-12-19T18:12:26.984Z,71.26
2022-12-19T18:14:56.134Z,71.38
2022-12-19T18:17:27.517Z,71.25
2022-12-19T18:19:56.978Z,71.66
2022-12-19T18:22:26.399Z,71.67
2022-12-19T18:24:56.441Z,71.57
2022-12-19T18:27:25.989Z,71.70
2022-12-19T18:29:55.773Z,71.48
2022-12-19T18:32:26.339Z,71.60
2022-12-19T18:34:55.505Z,71.65
2022-12-19T18:37:24.955Z,71.63
2022-12-19T18:39:55.862Z,71.87
2022-12-19T18:42:25.382Z,71.88
2022-12-19T18:44:54.527Z,71.92
2022-12-19T18:47:26.621Z,72.09
2022-12-19T18:49:55.921Z,71.77
2022-12-19T18:52:25.963Z,71.95
2022-12-19T18:54:55.044Z,71.82
2022-12-19T18:57:24.672Z,71.98
2022-12-19T18:59:53.944Z,72.08
2022-12-19T19:02:28.947Z,72.05
2022-12-19T19:04:59.379Z,72.10
2022-12-19T19:07:29.168Z,72.16
2022-12-19T19:09:58.298Z,72.22
2022-12-19T19:12:52.855Z,72.33
2022-12-19T19:15:24.616Z,72.43
2022-12-19T19:18:02.933Z,72.43
2022-12-19T19:20:36.267Z,72.48
2022-12-19T19:23:09.873Z,72.67
2022-12-19T19:25:41.038Z,72.65
2022-12-19T19:28:10.644Z,72.62
2022-12-19T19:30:41.505Z,72.68
2022-12-19T19:33:20.992Z,73.15
2022-12-19T19:35:53.806Z,73.11
2022-12-19T19:38:25.720Z,73.14
2022-12-19T19:40:55.007Z,73.02
2022-12-19T19:43:24.422Z,73.06
2022-12-19T19:45:53.753Z,73.15
2022-12-19T19:48:24.574Z,73.33
2022-12-19T19:50:53.820Z,73.52
2022-12-19T19:53:23.658Z,73.48
2022-12-19T19:55:59.497Z,73.23
2022-12-19T19:58:32.762Z,73.41
2022-12-19T20:01:08.502Z,73.58
2022-12-19T20:03:41.947Z,74.02
2022-12-19T20:06:13.550Z,73.71
2022-12-19T20:08:42.962Z,73.56
2022-12-19T20:11:12.363Z,73.84
2022-12-19T20:13:41.811Z,73.83
2022-12-19T20:16:13.317Z,73.69
2022-12-19T20:18:48.847Z,73.57
2022-12-19T20:21:19.815Z,73.65
2022-12-19T20:23:50.344Z,73.48
2022-12-19T20:26:20.270Z,73.80
2022-12-19T20:28:51.470Z,73.93
2022-12-19T20:31:22.816Z,73.80
2022-12-19T20:33:56.239Z,74.15
2022-12-19T20:36:26.295Z,74.37
2022-12-19T20:38:55.901Z,74.26
2022-12-19T20:41:25.139Z,74.06
2022-12-19T20:43:55.113Z,74.43
2022-12-19T20:46:25.236Z,74.67
2022-12-19T20:48:56.505Z,74.79
2022-12-19T20:51:27.767Z,75.35
2022-12-19T20:53:56.900Z,74.58
2022-12-19T20:56:26.234Z,75.12
2022-12-19T20:58:56.042Z,74.73
2022-12-19T21:01:26.710Z,75.03
2022-12-19T21:03:58.365Z,75.26
2022-12-19T21:06:27.909Z,75.31
2022-12-19T21:08:58.079Z,75.59
2022-12-19T21:11:28.263Z,75.20
2022-12-19T21:13:58.132Z,75.63
2022-12-19T21:16:27.361Z,75.18
2022-12-19T21:18:58.408Z,75.43
2022-12-19T21:21:29.266Z,75.28
2022-12-19T21:23:58.705Z,75.19
2022-12-19T21:26:27.844Z,75.03
2022-12-19T21:28:59.403Z,75.31
2022-12-19T21:31:31.294Z,75.18
2022-12-19T21:34:03.785Z,75.62
2022-12-19T21:36:33.570Z,75.40
2022-12-19T21:39:03.189Z,75.31
2022-12-19T21:41:33.488Z,75.89
2022-12-19T21:44:03.064Z,75.22
2022-12-19T21:46:34.048Z,75.41
2022-12-19T21:49:05.172Z,75.52
2022-12-19T21:51:34.411Z,75.86
2022-12-19T21:54:07.018Z,75.64
2022-12-19T21:56:38.968Z,75.78
2022-12-19T21:59:11.968Z,75.89
2022-12-19T22:01:42.379Z,76.13
2022-12-19T22:04:15.907Z,75.61
2022-12-19T22:06:45.468Z,75.45
2022-12-19T22:09:18.183Z,75.41
2022-12-19T22:11:48.959Z,75.40
2022-12-19T22:14:19.221Z,75.65
2022-12-19T22:16:48.570Z,76.07
2022-12-19T22:19:20.354Z,76.08
2022-12-19T22:21:49.753Z,75.74
2022-12-19T22:24:20.090Z,76.21
2022-12-19T22:26:49.568Z,75.95
2022-12-19T22:29:19.350Z,75.78
2022-12-19T22:31:49.861Z,75.99
2022-12-19T22:34:22.471Z,75.62
2022-12-19T22:36:51.827Z,75.47
2022-12-19T22:39:22.527Z,75.54
2022-12-19T22:41:52.519Z,75.60
2022-12-19T22:44:22.649Z,75.84
2022-12-19T22:46:52.112Z,76.33
2022-12-19T22:49:22.969Z,76.35
2022-12-19T22:51:52.209Z,76.33
2022-12-19T22:54:21.648Z,75.89
2022-12-19T22:56:52.289Z,76.51
2022-12-19T22:59:22.136Z,76.09
2022-12-19T23:01:51.524Z,75.98
2022-12-19T23:04:22.733Z,75.81
2022-12-19T23:06:52.351Z,75.98
2022-12-19T23:09:21.790Z,76.48
2022-12-19T23:11:51.507Z,75.75
2022-12-19T23:14:21.906Z,76.54
2022-12-19T23:16:51.295Z,76.35
2022-12-19T23:19:22.283Z,76.62
2022-12-19T23:21:51.729Z,76.47
2022-12-19T23:24:21.107Z,76.80
2022-12-19T23:26:50.991Z,76.64
2022-12-19T23:29:20.404Z,76.43
2022-12-19T23:31:49.715Z,76.70
2022-12-19T23:34:19.851Z,77.09
2022-12-19T23:39:39.865Z,77.24
2022-12-19T23:42:09.407Z,77.73
2022-12-19T23:44:39.244Z,77.22
2022-12-19T23:47:08.492Z,77.31
2022-12-19T23:49:37.953Z,77.38
2022-12-19T23:52:08.698Z,77.59
2022-12-19T23:54:38.405Z,77.80
2022-12-19T23:57:07.724Z,77.44
2022-12-19T23:59:37.268Z,78.15
